KCEU

Oconee County Regional Airport

Clemson, South Carolina, USA
METAR KCEU 180754Z AUTO 00000KT 10SM OVC012 08/06 A3017 RMK AO2 SLP218 T00830061
Observed Flight Rules
Dec-18 @ 07:54 UTC (60 minutes ago) Marginal Visual Flight Rules
Wind Visibility Clouds
Calm 10 miles
  • Overcast at 1,200' AGL
Temperatures Readings
Current 8°C / 46°F
Dewpoint 6°C / 43°F
Humidity 87%
Altimeter 30.17" Hg
Pressure 1021.8 hPa
Elevation 268
METAR KCEU 180754Z AUTO 00000KT 10SM OVC012 08/06 A3017 RMK AO2 SLP218 T00830061
Observed Flight Rules
Dec-18 @ 07:54 UTC
(60 minutes ago)
MVFR
Wind Visibility
Calm 10 miles
Clouds
  • Overcast at 1,200' AGL
Temperature Dewpoint
8°C / 46°F 6°C / 43°F
Humidity Altimeter Pressure
87% 30.17" Hg 1021.8 hPa